Time;durP1;ratioP1;P1;durP2;ratioP2;P2;SDS_P1;SDS_P2;PMS_P1;PMS_P2;Temp;Humidity;BMP_temperature;BMP_pressure;BME280_temperature;BME280_humidity;BME280_pressure;Samples;Min_cycle;Max_cycle;Signal;HPM_P1;HPM_P2
2020/12/29 00:00:57;;;;;;;78.05;32.15;;;3.30;99.90;;;;;;4178377;28;20476;-73
2020/12/29 00:02:57;;;;;;;75.97;32.40;;;3.30;99.90;;;;;;4160923;28;20029;-73
2020/12/29 00:04:58;;;;;;;67.40;31.58;;;3.30;99.90;;;;;;4160928;28;20433;-73
2020/12/29 00:06:58;;;;;;;72.88;32.85;;;3.30;99.90;;;;;;4160630;28;20037;-74
2020/12/29 00:08:59;;;;;;;75.32;35.72;;;3.40;99.90;;;;;;4178644;28;20128;-73
2020/12/29 00:11:00;;;;;;;76.32;33.83;;;3.30;99.90;;;;;;4162518;28;20026;-73
2020/12/29 00:13:01;;;;;;;71.97;33.53;;;3.40;99.90;;;;;;4171526;28;20530;-74
2020/12/29 00:15:02;;;;;;;73.03;32.13;;;3.40;99.90;;;;;;4162410;28;20413;-73
2020/12/29 00:17:03;;;;;;;72.30;32.40;;;3.40;99.90;;;;;;4162245;28;20040;-74
2020/12/29 00:19:14;;;;;;;72.30;32.17;;;3.40;99.90;;;;;;4179932;28;20036;-73
2020/12/29 00:21:19;;;;;;;78.03;33.33;;;3.40;99.90;;;;;;4180027;28;20404;-73
2020/12/29 00:23:19;;;;;;;70.65;30.98;;;3.40;99.90;;;;;;4149958;28;20025;-72
2020/12/29 00:25:20;;;;;;;71.03;30.95;;;3.40;99.90;;;;;;4177948;28;20155;-73
2020/12/29 00:27:21;;;;;;;73.43;31.70;;;3.40;99.90;;;;;;4179908;28;20436;-73
2020/12/29 00:29:21;;;;;;;73.05;30.77;;;3.40;99.90;;;;;;4179704;28;20375;-72
2020/12/29 00:31:23;;;;;;;78.50;33.65;;;3.40;99.90;;;;;;4179980;28;20052;-72
2020/12/29 00:33:24;;;;;;;79.85;31.38;;;3.40;99.90;;;;;;4179529;28;20112;-73
2020/12/29 00:35:25;;;;;;;78.10;30.95;;;3.50;99.90;;;;;;4161981;28;20037;-73
2020/12/29 00:37:25;;;;;;;76.22;33.28;;;3.50;99.90;;;;;;4179518;28;20578;-73
2020/12/29 00:39:26;;;;;;;83.03;34.05;;;3.50;99.90;;;;;;4179725;28;20071;-73
2020/12/29 00:41:28;;;;;;;77.68;31.15;;;3.50;99.90;;;;;;4162191;28;20033;-74
2020/12/29 00:43:28;;;;;;;74.70;31.83;;;3.50;99.90;;;;;;4179777;28;20021;-73
2020/12/29 00:45:29;;;;;;;73.50;30.83;;;3.50;99.90;;;;;;4179505;28;20081;-74
2020/12/29 00:47:29;;;;;;;81.25;32.35;;;3.50;99.90;;;;;;4161855;28;20397;-73
2020/12/29 00:49:30;;;;;;;78.68;31.92;;;3.50;99.90;;;;;;4179485;28;20072;-73
2020/12/29 00:51:31;;;;;;;77.50;32.63;;;3.50;99.90;;;;;;4179908;28;20025;-73
2020/12/29 00:53:32;;;;;;;84.88;33.17;;;3.50;99.90;;;;;;4179384;28;20055;-73
2020/12/29 00:55:32;;;;;;;77.22;34.00;;;3.50;99.90;;;;;;4179001;28;20126;-73
2020/12/29 00:57:33;;;;;;;76.38;32.85;;;3.50;99.90;;;;;;4160028;28;20465;-73
2020/12/29 00:59:33;;;;;;;83.90;34.85;;;3.50;99.90;;;;;;4178095;28;20392;-73
2020/12/29 01:01:34;;;;;;;76.78;32.17;;;3.60;99.90;;;;;;4160222;28;20133;-73
2020/12/29 01:03:35;;;;;;;70.50;31.35;;;3.60;99.90;;;;;;4177895;28;20028;-73
2020/12/29 01:05:35;;;;;;;71.80;31.05;;;3.60;99.90;;;;;;4177919;28;20021;-73
2020/12/29 01:07:38;;;;;;;74.80;32.30;;;3.60;99.90;;;;;;4159766;28;20037;-73
2020/12/29 01:09:39;;;;;;;77.95;32.17;;;3.60;99.90;;;;;;4161937;28;20030;-73
2020/12/29 01:11:40;;;;;;;75.05;31.75;;;3.60;99.90;;;;;;4172895;28;20136;-73
2020/12/29 01:13:40;;;;;;;74.60;30.25;;;3.60;99.90;;;;;;4159660;28;20500;-73
2020/12/29 01:15:41;;;;;;;79.47;32.67;;;3.60;99.90;;;;;;4159630;28;20132;-73
2020/12/29 01:17:41;;;;;;;79.22;32.22;;;3.60;99.90;;;;;;4177588;28;20384;-73
2020/12/29 01:19:42;;;;;;;78.25;33.15;;;3.60;99.90;;;;;;4177461;28;20112;-73
2020/12/29 01:21:42;;;;;;;71.93;32.35;;;3.70;99.90;;;;;;4177518;28;20480;-73
2020/12/29 01:23:43;;;;;;;80.35;32.53;;;3.60;99.90;;;;;;4159793;28;20029;-73
2020/12/29 01:25:44;;;;;;;72.93;32.75;;;3.60;99.90;;;;;;4180541;28;20352;-73
2020/12/29 01:27:45;;;;;;;77.10;33.63;;;3.60;99.90;;;;;;4181499;28;20021;-74
2020/12/29 01:29:46;;;;;;;74.28;30.70;;;3.70;99.90;;;;;;4164977;28;20044;-73
2020/12/29 01:31:46;;;;;;;72.13;32.20;;;3.70;99.90;;;;;;4164614;28;20500;-73
2020/12/29 01:33:47;;;;;;;63.85;30.50;;;3.70;99.90;;;;;;4182630;28;20108;-73
2020/12/29 01:35:48;;;;;;;67.43;29.88;;;3.70;99.90;;;;;;4181582;28;20380;-73
2020/12/29 01:37:48;;;;;;;69.43;29.88;;;3.80;99.90;;;;;;4164572;28;20034;-73
2020/12/29 01:39:49;;;;;;;60.95;30.95;;;3.80;99.90;;;;;;4164749;28;20037;-72
2020/12/29 01:41:50;;;;;;;61.20;30.27;;;3.80;99.90;;;;;;4164498;28;20103;-73
2020/12/29 01:43:51;;;;;;;67.88;32.53;;;3.80;99.90;;;;;;4182259;28;20025;-73
2020/12/29 01:45:52;;;;;;;64.60;29.42;;;3.80;99.90;;;;;;4182469;28;20029;-72
2020/12/29 01:47:53;;;;;;;59.28;29.55;;;3.70;99.90;;;;;;4182292;28;20379;-72
2020/12/29 01:49:54;;;;;;;64.13;30.08;;;3.80;99.90;;;;;;4181901;28;20037;-73
2020/12/29 01:51:55;;;;;;;70.07;30.10;;;3.70;99.90;;;;;;4182461;28;20049;-73
2020/12/29 01:53:55;;;;;;;63.38;31.08;;;3.70;99.90;;;;;;4179613;28;20033;-73
2020/12/29 01:55:56;;;;;;;63.58;30.48;;;3.70;99.90;;;;;;4182219;28;20037;-73
2020/12/29 01:58:00;;;;;;;62.90;29.50;;;3.70;99.90;;;;;;4181961;28;20369;-73
2020/12/29 02:00:11;;;;;;;60.88;29.65;;;3.70;99.90;;;;;;4181987;28;20043;-74
2020/12/29 02:02:12;;;;;;;65.95;31.15;;;3.70;99.90;;;;;;4180897;28;20021;-74
2020/12/29 02:04:13;;;;;;;61.38;30.95;;;3.70;99.90;;;;;;4180905;28;20040;-73
2020/12/29 02:06:13;;;;;;;63.75;31.38;;;3.80;99.90;;;;;;4180530;28;20044;-73
2020/12/29 02:08:15;;;;;;;65.00;31.75;;;3.80;99.90;;;;;;4162450;28;20033;-73
2020/12/29 02:10:16;;;;;;;65.03;31.75;;;3.80;99.90;;;;;;4162885;28;20558;-73
2020/12/29 02:12:23;;;;;;;64.03;31.92;;;3.80;99.90;;;;;;4162601;28;20529;-73
2020/12/29 02:14:24;;;;;;;63.20;30.38;;;3.80;99.90;;;;;;4162595;28;20335;-74
2020/12/29 02:16:24;;;;;;;57.92;29.55;;;3.80;99.90;;;;;;4180577;28;20372;-73
2020/12/29 02:18:25;;;;;;;58.28;30.55;;;3.80;99.90;;;;;;4180199;28;20087;-73
2020/12/29 02:20:25;;;;;;;59.90;29.58;;;3.80;99.90;;;;;;4162556;28;20034;-73
2020/12/29 02:22:27;;;;;;;61.17;30.05;;;3.80;99.90;;;;;;4180101;28;20033;-73
2020/12/29 02:24:28;;;;;;;64.65;28.27;;;3.80;99.90;;;;;;4180571;28;20025;-74
2020/12/29 02:26:32;;;;;;;59.63;30.20;;;3.80;99.90;;;;;;4180436;28;20036;-74
2020/12/29 02:28:33;;;;;;;61.28;29.15;;;3.80;99.90;;;;;;4179989;28;20039;-74
2020/12/29 02:30:33;;;;;;;55.85;29.60;;;3.80;99.90;;;;;;4180178;28;20384;-73
2020/12/29 02:32:34;;;;;;;63.88;31.60;;;3.80;99.90;;;;;;4180391;28;20025;-74
2020/12/29 02:34:37;;;;;;;64.45;30.95;;;3.80;99.90;;;;;;4180397;28;20525;-73
2020/12/29 02:36:37;;;;;;;58.47;28.58;;;3.80;99.90;;;;;;4180574;28;20032;-74
2020/12/29 02:38:38;;;;;;;59.80;29.23;;;3.80;99.90;;;;;;4164091;28;20499;-73
2020/12/29 02:40:38;;;;;;;57.50;28.83;;;3.80;99.90;;;;;;4181622;28;20484;-72
2020/12/29 02:42:39;;;;;;;58.47;31.33;;;3.80;99.90;;;;;;4163716;28;20116;-72
2020/12/29 02:44:39;;;;;;;58.88;29.80;;;3.80;99.90;;;;;;4163741;28;20029;-74
2020/12/29 02:46:41;;;;;;;51.17;28.33;;;3.80;99.90;;;;;;4181699;28;20056;-72
2020/12/29 02:48:41;;;;;;;54.03;27.77;;;3.80;99.90;;;;;;4181512;28;20124;-72
2020/12/29 02:50:42;;;;;;;49.50;27.23;;;3.90;99.90;;;;;;4181505;28;20040;-74
2020/12/29 02:52:43;;;;;;;51.50;27.90;;;3.90;99.90;;;;;;4167669;28;20022;-74
2020/12/29 02:54:43;;;;;;;53.50;28.23;;;3.90;99.90;;;;;;4181487;28;20407;-74
2020/12/29 02:56:44;;;;;;;49.40;27.67;;;3.90;99.90;;;;;;4163743;28;20053;-72
2020/12/29 02:58:45;;;;;;;52.10;27.52;;;3.90;99.90;;;;;;4163641;28;20420;-72
2020/12/29 03:00:46;;;;;;;53.78;28.00;;;3.90;99.90;;;;;;4181250;28;20029;-73
2020/12/29 03:02:46;;;;;;;53.53;28.70;;;3.90;99.90;;;;;;4163675;28;20098;-73
2020/12/29 03:04:47;;;;;;;50.47;27.90;;;3.90;99.90;;;;;;4181323;28;20022;-73
2020/12/29 03:06:48;;;;;;;49.40;26.63;;;3.80;99.90;;;;;;4181115;28;20021;-74
2020/12/29 03:08:49;;;;;;;46.40;25.85;;;3.90;99.90;;;;;;4181403;28;20029;-74
2020/12/29 03:10:50;;;;;;;52.70;29.33;;;3.90;99.90;;;;;;4181219;28;20028;-74
2020/12/29 03:12:50;;;;;;;44.90;26.23;;;3.90;99.90;;;;;;4163346;28;20049;-73
2020/12/29 03:14:51;;;;;;;49.25;27.70;;;3.90;99.90;;;;;;4181200;28;20060;-73
2020/12/29 03:16:52;;;;;;;49.88;28.23;;;3.90;99.90;;;;;;4181057;28;20048;-73
2020/12/29 03:18:53;;;;;;;52.50;28.33;;;3.80;99.90;;;;;;4181071;28;20036;-73
2020/12/29 03:20:54;;;;;;;46.45;27.60;;;3.90;99.90;;;;;;4181264;28;20043;-73
2020/12/29 03:22:55;;;;;;;48.80;29.38;;;3.80;99.90;;;;;;4181049;28;20043;-73
2020/12/29 03:24:55;;;;;;;54.03;29.33;;;3.80;99.90;;;;;;4180753;28;20044;-74
2020/12/29 03:26:56;;;;;;;51.75;27.63;;;3.80;99.90;;;;;;4163275;28;20040;-73
2020/12/29 03:28:57;;;;;;;54.20;28.45;;;3.80;99.90;;;;;;4180871;28;20044;-74
2020/12/29 03:30:57;;;;;;;50.80;28.63;;;3.80;99.90;;;;;;4180884;28;20018;-71
2020/12/29 03:32:58;;;;;;;47.95;27.30;;;3.80;99.90;;;;;;4180925;28;20107;-74
2020/12/29 03:34:58;;;;;;;50.13;28.40;;;3.90;99.90;;;;;;4180993;28;20026;-72
2020/12/29 03:36:59;;;;;;;51.63;28.48;;;3.90;99.90;;;;;;4180740;28;20401;-73
2020/12/29 03:38:59;;;;;;;46.13;28.00;;;3.80;99.90;;;;;;4162698;28;20456;-73
2020/12/29 03:41:00;;;;;;;51.33;29.60;;;3.80;99.90;;;;;;4162933;28;20029;-73
2020/12/29 03:43:01;;;;;;;49.55;28.45;;;3.80;99.90;;;;;;4180222;28;20025;-74
2020/12/29 03:45:02;;;;;;;55.97;28.27;;;3.80;99.90;;;;;;4162897;28;20107;-73
2020/12/29 03:47:03;;;;;;;50.47;29.27;;;3.80;99.90;;;;;;4162449;28;20049;-73
2020/12/29 03:49:04;;;;;;;52.15;29.60;;;3.80;99.90;;;;;;4180259;28;20049;-73
2020/12/29 03:51:04;;;;;;;57.45;30.40;;;3.80;99.90;;;;;;4180720;28;20021;-73
2020/12/29 03:53:05;;;;;;;54.42;29.77;;;3.80;99.90;;;;;;4179841;28;20036;-73
2020/12/29 03:55:06;;;;;;;52.70;30.17;;;3.80;99.90;;;;;;4175974;28;20029;-73
2020/12/29 03:57:07;;;;;;;56.67;30.75;;;3.80;99.90;;;;;;4180192;28;20111;-74
2020/12/29 03:59:07;;;;;;;51.47;29.40;;;3.80;99.90;;;;;;4162578;28;20029;-73
2020/12/29 04:01:08;;;;;;;51.05;30.10;;;3.80;99.90;;;;;;4162653;28;20555;-74
2020/12/29 04:03:08;;;;;;;49.70;29.23;;;3.90;99.90;;;;;;4180317;28;20017;-73
2020/12/29 04:05:11;;;;;;;53.97;31.30;;;3.80;99.90;;;;;;4180031;28;20024;-73
2020/12/29 04:07:11;;;;;;;55.60;30.50;;;3.80;99.90;;;;;;4180359;28;20104;-73
2020/12/29 04:09:12;;;;;;;51.95;31.65;;;3.80;99.90;;;;;;4154056;28;20030;-73
2020/12/29 04:11:12;;;;;;;50.33;30.05;;;3.80;99.90;;;;;;4163224;28;20381;-73
2020/12/29 04:13:13;;;;;;;51.88;30.27;;;3.80;99.90;;;;;;4162495;28;20156;-73
2020/12/29 04:15:14;;;;;;;56.88;30.45;;;3.80;99.90;;;;;;4179967;28;20029;-73
2020/12/29 04:17:14;;;;;;;58.28;31.67;;;3.80;99.90;;;;;;4179877;28;20021;-73
2020/12/29 04:19:15;;;;;;;52.60;29.58;;;3.80;99.90;;;;;;4162369;28;20018;-72
2020/12/29 04:21:16;;;;;;;52.17;31.13;;;3.80;99.90;;;;;;4162286;28;20029;-73
2020/12/29 04:23:16;;;;;;;53.83;30.17;;;3.90;99.90;;;;;;4179867;28;20025;-73
2020/12/29 04:25:17;;;;;;;50.35;30.98;;;3.80;99.90;;;;;;4161885;28;20040;-73
2020/12/29 04:27:17;;;;;;;57.22;32.97;;;3.90;99.90;;;;;;4180116;28;20112;-74
2020/12/29 04:29:18;;;;;;;59.13;32.95;;;3.80;99.90;;;;;;4162341;28;20467;-73
2020/12/29 04:31:22;;;;;;;55.28;31.77;;;3.80;99.90;;;;;;4180035;28;20028;-73
2020/12/29 04:33:23;;;;;;;53.30;31.77;;;3.80;99.90;;;;;;4162219;28;20036;-74
2020/12/29 04:35:23;;;;;;;57.80;33.15;;;3.80;99.90;;;;;;4179601;28;20476;-73
2020/12/29 04:37:24;;;;;;;59.70;32.63;;;3.80;99.90;;;;;;4179765;28;20036;-72
2020/12/29 04:39:26;;;;;;;61.45;33.78;;;3.80;99.90;;;;;;4162246;28;20539;-73
2020/12/29 04:41:28;;;;;;;64.25;34.70;;;3.80;99.90;;;;;;4179698;28;20029;-73
2020/12/29 04:43:31;;;;;;;63.15;33.70;;;3.80;99.90;;;;;;4179931;28;20035;-73
2020/12/29 04:45:32;;;;;;;60.72;33.85;;;3.80;99.90;;;;;;4179964;28;20033;-74
2020/12/29 04:47:33;;;;;;;59.70;33.58;;;3.80;99.90;;;;;;4179476;28;20103;-72
2020/12/29 04:49:34;;;;;;;70.22;36.90;;;3.80;99.90;;;;;;4179443;28;20396;-73
2020/12/29 04:51:36;;;;;;;70.13;35.25;;;3.80;99.90;;;;;;4179657;28;20029;-73
2020/12/29 04:53:37;;;;;;;67.82;34.42;;;3.80;99.90;;;;;;4179608;28;20025;-73
2020/12/29 04:55:43;;;;;;;76.00;36.42;;;3.90;99.90;;;;;;4161306;28;20040;-73
2020/12/29 04:57:45;;;;;;;66.90;35.55;;;3.80;99.90;;;;;;4160492;28;20033;-74
2020/12/29 04:59:45;;;;;;;69.90;36.50;;;3.80;99.90;;;;;;4159358;28;20036;-74
2020/12/29 05:01:46;;;;;;;73.20;35.70;;;3.90;99.90;;;;;;4177859;28;20484;-74
2020/12/29 05:03:48;;;;;;;73.88;35.88;;;3.90;99.90;;;;;;4178510;28;20027;-72
2020/12/29 05:05:51;;;;;;;74.82;36.78;;;3.90;99.90;;;;;;4179471;28;20029;-74
2020/12/29 05:07:51;;;;;;;63.53;34.63;;;3.90;99.90;;;;;;4160758;28;20112;-73
2020/12/29 05:09:52;;;;;;;69.13;35.10;;;3.90;99.90;;;;;;4159128;28;20041;-73
2020/12/29 05:11:54;;;;;;;67.38;35.25;;;3.90;99.90;;;;;;4158269;28;20061;-73
2020/12/29 05:13:54;;;;;;;69.50;34.70;;;3.90;99.90;;;;;;4176890;28;20055;-73
2020/12/29 05:15:55;;;;;;;74.85;33.63;;;3.90;99.90;;;;;;4176621;28;20172;-72
2020/12/29 05:18:02;;;;;;;68.18;37.00;;;3.90;99.90;;;;;;4175938;28;20053;-72
2020/12/29 05:20:03;;;;;;;66.13;34.72;;;3.80;99.90;;;;;;4158010;28;20474;-72
2020/12/29 05:22:05;;;;;;;64.50;34.88;;;3.80;99.90;;;;;;4175822;28;20029;-73
2020/12/29 05:24:11;;;;;;;68.07;35.88;;;3.80;99.90;;;;;;4158101;28;20527;-73
2020/12/29 05:26:12;;;;;;;64.63;35.00;;;3.90;99.90;;;;;;4176048;28;20481;-73
2020/12/29 05:28:13;;;;;;;71.75;35.78;;;3.80;99.90;;;;;;4176078;28;20037;-72
2020/12/29 05:30:14;;;;;;;75.88;36.38;;;3.80;99.90;;;;;;4158985;28;20091;-72
2020/12/29 05:32:18;;;;;;;77.10;39.00;;;3.80;99.90;;;;;;4177972;28;20490;-72
2020/12/29 05:34:20;;;;;;;73.50;38.03;;;3.80;99.90;;;;;;4179174;28;20022;-74
2020/12/29 05:36:21;;;;;;;74.60;39.38;;;3.80;99.90;;;;;;4179258;28;20021;-72
2020/12/29 05:38:22;;;;;;;72.20;37.63;;;3.80;99.90;;;;;;4160720;28;20711;-72
2020/12/29 05:40:28;;;;;;;77.80;38.20;;;3.80;99.90;;;;;;4178893;28;20029;-73
2020/12/29 05:42:33;;;;;;;70.90;36.13;;;3.80;99.90;;;;;;4177597;28;20017;-73
2020/12/29 05:44:35;;;;;;;75.43;36.60;;;3.80;99.90;;;;;;4161100;28;20115;-73
2020/12/29 05:46:36;;;;;;;73.88;36.17;;;3.80;99.90;;;;;;4179230;28;20435;-73
2020/12/29 05:48:37;;;;;;;78.60;35.03;;;3.80;99.90;;;;;;4178894;28;20029;-73
2020/12/29 05:50:37;;;;;;;72.38;34.15;;;3.80;99.90;;;;;;4160885;28;20033;-74
2020/12/29 05:52:41;;;;;;;73.22;33.63;;;3.90;99.90;;;;;;4159539;28;20439;-73
2020/12/29 05:54:43;;;;;;;66.00;32.58;;;3.80;99.90;;;;;;4178080;28;20479;-74
2020/12/29 05:56:44;;;;;;;71.57;37.10;;;3.80;99.90;;;;;;4177807;28;20025;-71
2020/12/29 05:58:45;;;;;;;80.80;34.60;;;3.70;99.90;;;;;;4159650;28;20025;-72
2020/12/29 06:00:48;;;;;;;82.75;32.30;;;3.70;99.90;;;;;;4177214;28;20477;-72
2020/12/29 06:02:50;;;;;;;73.77;33.33;;;3.70;99.90;;;;;;4177879;28;20028;-72
2020/12/29 06:04:51;;;;;;;68.03;31.75;;;3.70;99.90;;;;;;4161295;28;20261;-72
2020/12/29 06:06:58;;;;;;;76.22;33.47;;;3.70;99.90;;;;;;4161054;28;20084;-72
2020/12/29 06:09:02;;;;;;;74.25;32.35;;;3.70;99.90;;;;;;4178843;28;20528;-73
2020/12/29 06:11:23;;;;;;;74.32;33.22;;;3.70;99.90;;;;;;4162847;28;20025;-73
2020/12/29 06:13:27;;;;;;;77.28;32.90;;;3.70;99.90;;;;;;4171521;28;20033;-73
2020/12/29 06:15:32;;;;;;;75.40;32.30;;;3.60;99.90;;;;;;4164319;28;20531;-73
2020/12/29 06:17:33;;;;;;;80.15;31.95;;;3.60;99.90;;;;;;4181907;28;20086;-73
2020/12/29 06:19:57;;;;;;;73.82;34.00;;;3.60;99.90;;;;;;4164052;28;20424;-73
2020/12/29 06:22:12;;;;;;;73.68;33.65;;;3.60;99.90;;;;;;4181714;28;20031;-73
2020/12/29 06:24:12;;;;;;;71.20;35.50;;;3.60;99.90;;;;;;4174496;28;20056;-73
2020/12/29 06:26:20;;;;;;;77.97;32.50;;;3.60;99.90;;;;;;4181955;28;20025;-72
2020/12/29 06:28:27;;;;;;;73.57;33.10;;;3.60;99.90;;;;;;4181936;28;20054;-72
2020/12/29 06:30:28;;;;;;;67.60;29.83;;;3.60;99.90;;;;;;4180844;28;20479;-73
2020/12/29 06:32:34;;;;;;;62.58;29.67;;;3.60;99.90;;;;;;4180282;28;20047;-73
2020/12/29 06:34:35;;;;;;;57.47;28.55;;;3.50;99.90;;;;;;4180214;28;20041;-73
2020/12/29 06:36:38;;;;;;;60.63;28.02;;;3.50;99.90;;;;;;4179834;28;20522;-73
2020/12/29 06:38:39;;;;;;;;;;;3.60;99.90;;;;;;4163796;28;20056;-73
2020/12/29 06:40:42;;;;;;;54.03;25.60;;;3.50;99.90;;;;;;4163673;28;19916;-73
2020/12/29 06:42:43;;;;;;;53.78;27.55;;;3.50;99.90;;;;;;4181519;28;20380;-73
2020/12/29 06:44:44;;;;;;;58.60;28.42;;;3.40;99.90;;;;;;4163974;28;20021;-73
2020/12/29 06:46:55;;;;;;;58.58;27.30;;;3.40;99.90;;;;;;4181164;28;20806;-73
2020/12/29 06:48:57;;;;;;;63.97;27.92;;;3.40;99.90;;;;;;4163281;28;20048;-73
2020/12/29 06:51:10;;;;;;;56.75;26.17;;;3.40;99.90;;;;;;4163831;28;20053;-74
2020/12/29 06:53:17;;;;;;;66.47;26.67;;;3.40;99.90;;;;;;4181277;28;20427;-73
2020/12/29 06:55:19;;;;;;;60.63;26.63;;;3.40;99.90;;;;;;4163700;28;20042;-73
2020/12/29 06:57:50;;;;;;;55.90;25.70;;;3.40;99.90;;;;;;4180913;28;20037;-74
2020/12/29 06:59:50;;;;;;;55.50;24.20;;;3.50;99.90;;;;;;4158903;28;20030;-72
2020/12/29 07:01:52;;;;;;;64.45;27.20;;;3.40;99.90;;;;;;4166728;28;20500;-72
2020/12/29 07:04:02;;;;;;;54.80;25.75;;;3.30;99.90;;;;;;4149190;28;20036;-73
2020/12/29 07:06:06;;;;;;;54.22;26.85;;;3.40;99.90;;;;;;4169710;28;20374;-75
2020/12/29 07:08:07;;;;;;;60.85;26.00;;;3.40;99.90;;;;;;4158854;28;20030;-73
2020/12/29 07:10:12;;;;;;;68.88;26.48;;;3.40;99.90;;;;;;4164420;28;20500;-74
2020/12/29 07:12:17;;;;;;;56.28;24.90;;;3.50;99.90;;;;;;4174040;28;20108;-73
2020/12/29 07:14:18;;;;;;;58.45;27.58;;;3.50;99.90;;;;;;4160186;28;20080;-74
2020/12/29 07:16:22;;;;;;;54.28;24.65;;;3.50;99.90;;;;;;4156300;28;20026;-74
2020/12/29 07:18:25;;;;;;;54.97;27.52;;;3.50;99.90;;;;;;4142407;28;20029;-73
2020/12/29 07:20:30;;;;;;;61.22;27.83;;;3.40;99.90;;;;;;4158539;28;20033;-74
2020/12/29 07:22:35;;;;;;;60.95;28.00;;;3.40;99.90;;;;;;4168543;28;20036;-73
2020/12/29 07:24:36;;;;;;;59.47;25.50;;;3.40;99.90;;;;;;4167040;28;20037;-73
2020/12/29 07:26:39;;;;;;;54.13;25.85;;;3.20;99.90;;;;;;4165292;28;20057;-73
2020/12/29 07:28:40;;;;;;;53.97;24.13;;;3.10;99.90;;;;;;4164957;28;20041;-73
2020/12/29 07:30:41;;;;;;;54.60;24.83;;;3.10;99.90;;;;;;4163648;28;20057;-73
2020/12/29 07:32:42;;;;;;;45.22;23.05;;;3.10;99.90;;;;;;4166777;28;20083;-72
2020/12/29 07:34:45;;;;;;;49.53;22.20;;;3.00;99.90;;;;;;4165834;28;20025;-73
2020/12/29 07:36:47;;;;;;;;;;;2.90;99.90;;;;;;4148790;28;20026;-73
2020/12/29 07:38:49;;;;;;;46.47;22.38;;;2.90;99.90;;;;;;4165145;28;19966;-73
2020/12/29 07:40:50;;;;;;;47.20;22.85;;;2.80;99.90;;;;;;4145995;28;20037;-73
2020/12/29 07:42:51;;;;;;;47.15;21.65;;;2.90;99.90;;;;;;4165867;28;20025;-73
2020/12/29 07:44:52;;;;;;;50.22;24.52;;;2.90;99.90;;;;;;4163673;28;20091;-73
2020/12/29 07:46:52;;;;;;;51.08;25.45;;;2.80;99.90;;;;;;4164390;28;20030;-73
2020/12/29 07:48:53;;;;;;;54.33;23.42;;;2.80;99.90;;;;;;4149498;28;20053;-73
2020/12/29 07:50:59;;;;;;;51.47;24.45;;;2.80;99.90;;;;;;4167746;28;20488;-73
2020/12/29 07:53:07;;;;;;;51.10;24.48;;;2.70;99.90;;;;;;4165827;28;20369;-73
2020/12/29 07:55:09;;;;;;;54.05;24.58;;;2.80;99.90;;;;;;4165063;28;20057;-72
2020/12/29 07:57:10;;;;;;;51.28;24.10;;;2.80;99.90;;;;;;4165116;28;20013;-73
2020/12/29 07:59:11;;;;;;;53.72;24.90;;;2.80;99.90;;;;;;4164000;28;20703;-73
2020/12/29 08:01:12;;;;;;;50.58;23.38;;;2.80;99.90;;;;;;4145871;28;20022;-73
2020/12/29 08:03:13;;;;;;;51.40;24.83;;;2.70;99.90;;;;;;4162203;28;20024;-73
2020/12/29 08:05:14;;;;;;;60.30;26.77;;;2.70;99.90;;;;;;4163209;28;20448;-72
2020/12/29 08:07:15;;;;;;;61.33;28.75;;;2.70;99.90;;;;;;4166028;28;20504;-73
2020/12/29 08:09:15;;;;;;;58.65;26.60;;;2.70;99.90;;;;;;4168388;28;20341;-73
2020/12/29 08:11:22;;;;;;;60.70;28.25;;;2.70;99.90;;;;;;4169150;28;20029;-73
2020/12/29 08:13:23;;;;;;;58.33;27.70;;;2.70;99.90;;;;;;4166787;28;20419;-73
2020/12/29 08:15:25;;;;;;;61.38;27.75;;;2.70;99.90;;;;;;4171484;28;20037;-73
2020/12/29 08:17:25;;;;;;;54.35;26.85;;;2.70;99.90;;;;;;4166088;28;20113;-72
2020/12/29 08:19:26;;;;;;;52.75;26.52;;;2.60;99.90;;;;;;4169046;28;20076;-74
2020/12/29 08:21:29;;;;;;;60.13;26.67;;;2.60;99.90;;;;;;4164446;28;20386;-72
2020/12/29 08:23:30;;;;;;;54.38;24.65;;;2.60;99.90;;;;;;4167044;28;20033;-73
2020/12/29 08:25:32;;;;;;;58.08;26.60;;;2.60;99.90;;;;;;4166252;28;20036;-72
2020/12/29 08:27:33;;;;;;;51.17;25.50;;;2.50;99.90;;;;;;4162738;28;20029;-73
2020/12/29 08:29:34;;;;;;;55.75;23.33;;;2.50;99.90;;;;;;4175866;28;20032;-72
2020/12/29 08:31:38;;;;;;;51.75;23.40;;;2.50;99.90;;;;;;4177278;28;20036;-74
2020/12/29 08:33:41;;;;;;;50.67;23.00;;;2.50;99.90;;;;;;4159778;28;20037;-73
2020/12/29 08:35:48;;;;;;;46.13;22.13;;;2.60;99.90;;;;;;4176645;28;20037;-73
2020/12/29 08:38:01;;;;;;;55.28;24.50;;;2.60;99.90;;;;;;4176448;28;20116;-73
2020/12/29 08:40:13;;;;;;;53.30;24.23;;;2.50;99.90;;;;;;4178050;28;20031;-74
2020/12/29 08:42:17;;;;;;;49.28;22.33;;;2.50;99.90;;;;;;4161160;28;20061;-73
2020/12/29 08:44:19;;;;;;;56.03;24.73;;;2.50;99.90;;;;;;4158006;28;20034;-73
2020/12/29 08:46:21;;;;;;;55.13;25.13;;;2.60;99.90;;;;;;4178197;28;20025;-73
2020/12/29 08:48:22;;;;;;;54.70;24.65;;;2.60;99.90;;;;;;4160029;28;20033;-74
2020/12/29 08:50:29;;;;;;;47.58;22.63;;;2.60;99.90;;;;;;4176037;28;20457;-74
2020/12/29 08:52:31;;;;;;;52.47;24.42;;;2.60;99.90;;;;;;4153382;28;20038;-74
2020/12/29 08:54:38;;;;;;;59.75;25.45;;;2.60;99.90;;;;;;4179054;28;20455;-74
2020/12/29 08:56:40;;;;;;;62.28;25.63;;;2.60;99.90;;;;;;4179661;28;20082;-74
2020/12/29 08:58:41;;;;;;;61.20;26.95;;;2.60;99.90;;;;;;4179382;28;20029;-74
2020/12/29 09:00:45;;;;;;;62.47;26.75;;;2.60;99.90;;;;;;4179383;28;20021;-74
2020/12/29 09:02:46;;;;;;;60.88;26.25;;;2.60;99.90;;;;;;4179111;28;20021;-73
2020/12/29 09:04:58;;;;;;;56.92;26.20;;;2.60;99.90;;;;;;4179654;28;20033;-73
2020/12/29 09:07:03;;;;;;;53.30;24.00;;;2.60;99.90;;;;;;4179733;28;20021;-74
2020/12/29 09:09:07;;;;;;;43.33;19.92;;;2.70;99.90;;;;;;4150472;28;20030;-73
2020/12/29 09:11:15;;;;;;;50.17;24.60;;;2.80;99.90;;;;;;4170291;28;21436;-73
2020/12/29 09:13:15;;;;;;;49.20;22.65;;;2.80;99.90;;;;;;4174860;28;20055;-73
2020/12/29 09:15:24;;;;;;;51.22;22.92;;;2.80;99.90;;;;;;4177179;28;20116;-73
2020/12/29 09:17:27;;;;;;;45.28;20.67;;;2.80;99.90;;;;;;4177210;28;20108;-74
2020/12/29 09:19:28;;;;;;;52.95;22.92;;;2.80;99.90;;;;;;4159071;28;20079;-73
2020/12/29 09:21:28;;;;;;;48.90;22.80;;;2.80;99.90;;;;;;4177788;28;20021;-73
2020/12/29 09:23:29;;;;;;;56.15;24.63;;;2.80;99.90;;;;;;4159990;28;20094;-74
2020/12/29 09:25:43;;;;;;;47.35;21.95;;;2.80;99.90;;;;;;4159647;28;20477;-73
2020/12/29 09:27:43;;;;;;;56.63;24.23;;;2.80;99.90;;;;;;4177721;28;20211;-73
2020/12/29 09:29:44;;;;;;;56.50;25.08;;;2.80;99.90;;;;;;4178072;28;20472;-73
2020/12/29 09:31:52;;;;;;;48.40;21.63;;;2.90;99.90;;;;;;4178896;28;20050;-73
2020/12/29 09:33:53;;;;;;;56.67;24.38;;;2.90;99.90;;;;;;4179026;28;20017;-73
2020/12/29 09:35:55;;;;;;;48.85;23.70;;;3.00;99.90;;;;;;4179140;28;20033;-73
2020/12/29 09:37:58;;;;;;;55.88;24.73;;;2.90;99.90;;;;;;4179100;28;20033;-73
2020/12/29 09:39:59;;;;;;;52.17;25.92;;;3.00;99.90;;;;;;4160546;28;20548;-73
2020/12/29 09:41:59;;;;;;;56.17;26.55;;;3.00;99.90;;;;;;4179282;28;20083;-73
2020/12/29 09:44:00;;;;;;;49.78;24.30;;;3.10;99.90;;;;;;4178914;28;20422;-73
2020/12/29 09:46:00;;;;;;;50.58;23.13;;;3.10;99.90;;;;;;4180911;28;20484;-74
2020/12/29 09:48:01;;;;;;;51.20;23.85;;;3.10;99.90;;;;;;4182227;28;20040;-73
2020/12/29 09:50:04;;;;;;;52.63;24.52;;;3.20;99.90;;;;;;4164520;28;20496;-73
2020/12/29 09:52:05;;;;;;;51.75;23.10;;;3.20;99.90;;;;;;4164354;28;20042;-75
2020/12/29 09:54:05;;;;;;;50.05;23.50;;;3.20;99.90;;;;;;4182403;28;20600;-73
2020/12/29 09:56:06;;;;;;;53.58;25.65;;;3.20;99.90;;;;;;4163269;28;20030;-73
2020/12/29 09:58:07;;;;;;;53.20;23.55;;;3.30;99.90;;;;;;4154248;28;20021;-73
2020/12/29 10:00:08;;;;;;;53.45;26.08;;;3.30;99.90;;;;;;4172955;28;20033;-74
2020/12/29 10:02:08;;;;;;;51.95;25.00;;;3.30;99.90;;;;;;4180506;28;20108;-73
2020/12/29 10:04:09;;;;;;;53.17;24.65;;;3.40;99.90;;;;;;4148131;28;20604;-74
2020/12/29 10:06:09;;;;;;;53.65;26.50;;;3.40;99.90;;;;;;4155343;28;20038;-73
2020/12/29 10:08:11;;;;;;;59.60;27.15;;;3.30;99.90;;;;;;4158937;28;20384;-75
2020/12/29 10:10:12;;;;;;;55.30;27.05;;;3.30;99.90;;;;;;4139813;28;20121;-74
2020/12/29 10:12:12;;;;;;;55.38;27.52;;;3.40;99.90;;;;;;4156614;28;20029;-74
2020/12/29 10:14:13;;;;;;;60.38;26.65;;;3.50;99.90;;;;;;4151366;28;20033;-73
2020/12/29 10:16:13;;;;;;;53.95;27.70;;;3.50;99.90;;;;;;4160254;28;20049;-74
2020/12/29 10:18:14;;;;;;;63.65;27.55;;;3.50;99.90;;;;;;4162381;28;20041;-73
2020/12/29 10:20:15;;;;;;;51.75;26.85;;;3.50;99.90;;;;;;4162620;28;20590;-75
2020/12/29 10:22:15;;;;;;;54.95;28.63;;;3.60;99.90;;;;;;4162542;28;20029;-73
2020/12/29 10:24:16;;;;;;;53.65;27.40;;;3.60;99.90;;;;;;4145073;28;20072;-74
2020/12/29 10:26:17;;;;;;;55.50;25.88;;;3.70;99.90;;;;;;4163421;28;20385;-74
2020/12/29 10:28:19;;;;;;;50.78;26.27;;;3.70;99.90;;;;;;4146381;28;20396;-73